Rose Hill, North Carolina
Current Conditions -  °F | °C
As of 9:15 AM on Monday 26 Jan 2015 (Local Time) from KDPL Reporting Station
Clear Clear  
Wind Chill: 39°   Ceiling: Unl
Heat Index: 39°   Visibility: 7mi
Dew Point: 39°   Wind: 0mph
Humidity: 100%   Direction: NA
Pressure: 29.66"   Gusts: NA
Location:  34.83°N, 78.02°W
Report Text: KDPL 261415Z AUTO 00000KT 7SM CLR 04/04 A2966 RMK AO2 T00410041
Loading
Personal Weather Stations






























Interactive Weather Map New forecast layout! Learn more

10-Day Weather Forecast

Advertisements
Track Severe Weather on mobile